createdAt,value
2018-03-20T00:02:19.077Z,11.43
2018-03-20T00:04:45.323Z,11.85
2018-03-20T00:07:11.594Z,11.45
2018-03-20T00:09:38.589Z,10.35
2018-03-20T00:12:04.626Z,13.98
2018-03-20T00:14:30.688Z,11.32
2018-03-20T00:16:56.741Z,13.40
2018-03-20T00:19:22.769Z,12.85
2018-03-20T00:21:48.916Z,10.32
2018-03-20T00:24:14.967Z,12.63
2018-03-20T00:26:40.997Z,13.40
2018-03-20T00:29:07.032Z,10.95
2018-03-20T00:31:33.060Z,17.90
2018-03-20T00:33:59.077Z,14.30
2018-03-20T00:36:25.137Z,17.10
2018-03-20T00:38:51.185Z,13.88
2018-03-20T00:41:17.217Z,11.32
2018-03-20T00:43:43.246Z,10.88
2018-03-20T00:46:09.294Z,10.35
2018-03-20T00:48:36.077Z,12.32
2018-03-20T00:51:02.115Z,10.77
2018-03-20T00:53:28.177Z,11.45
2018-03-20T00:55:54.273Z,13.18
2018-03-20T00:58:21.042Z,11.40
2018-03-20T01:00:47.084Z,15.82
2018-03-20T01:03:13.174Z,8.82
2018-03-20T01:05:39.201Z,10.55
2018-03-20T01:08:05.246Z,13.30
2018-03-20T01:10:31.305Z,11.75
2018-03-20T01:12:58.078Z,11.77
2018-03-20T01:15:24.260Z,12.37
2018-03-20T01:17:50.323Z,10.77
2018-03-20T01:20:17.098Z,9.52
2018-03-20T01:22:43.148Z,12.15
2018-03-20T01:25:09.391Z,12.35
2018-03-20T01:27:35.621Z,12.63
2018-03-20T01:30:01.877Z,11.77
2018-03-20T01:32:28.125Z,15.45
2018-03-20T01:34:54.375Z,13.25
2018-03-20T01:37:20.649Z,11.35
2018-03-20T01:39:46.887Z,13.73
2018-03-20T01:42:13.134Z,10.75
2018-03-20T01:44:40.101Z,13.85
2018-03-20T01:47:06.313Z,16.23
2018-03-20T01:49:32.535Z,12.88
2018-03-20T01:51:58.782Z,10.80
2018-03-20T01:54:25.006Z,12.50
2018-03-20T01:56:51.227Z,14.32
2018-03-20T01:59:17.529Z,11.43
2018-03-20T02:01:43.769Z,11.68
2018-03-20T02:04:09.980Z,9.77
2018-03-20T02:06:36.213Z,11.23
2018-03-20T02:09:02.445Z,12.63
2018-03-20T02:11:28.680Z,10.10
2018-03-20T02:13:54.929Z,11.07
2018-03-20T02:16:21.165Z,15.10
2018-03-20T02:18:47.402Z,8.68
2018-03-20T02:21:13.644Z,11.12
2018-03-20T02:23:39.869Z,9.15
2018-03-20T02:26:06.842Z,12.30
2018-03-20T02:28:33.074Z,11.85
2018-03-20T02:30:59.386Z,12.80
2018-03-20T02:33:26.166Z,10.45
2018-03-20T02:35:52.368Z,10.30
2018-03-20T02:38:18.436Z,13.38
2018-03-20T02:40:44.468Z,8.23
2018-03-20T02:43:10.549Z,11.45
2018-03-20T02:45:36.574Z,12.48
2018-03-20T02:48:02.649Z,12.70
2018-03-20T02:50:28.721Z,11.27
2018-03-20T02:52:54.746Z,10.75
2018-03-20T02:55:20.799Z,10.10
2018-03-20T02:57:46.831Z,14.25
2018-03-20T03:00:12.877Z,16.08
2018-03-20T03:02:38.929Z,11.57
2018-03-20T03:05:04.962Z,13.43
2018-03-20T03:07:31.002Z,14.50
2018-03-20T03:09:57.037Z,12.60
2018-03-20T03:12:23.117Z,12.75
2018-03-20T03:14:49.173Z,11.18
2018-03-20T03:17:15.238Z,10.38
2018-03-20T03:19:41.308Z,13.35
2018-03-20T03:22:07.334Z,11.43
2018-03-20T03:24:33.352Z,12.73
2018-03-20T03:26:59.371Z,12.73
2018-03-20T03:29:26.166Z,11.68
2018-03-20T03:31:52.213Z,9.65
2018-03-20T03:34:18.259Z,13.07
2018-03-20T03:36:44.298Z,17.62
2018-03-20T03:39:10.363Z,11.57
2018-03-20T03:41:37.148Z,10.85
2018-03-20T03:44:03.213Z,11.82
2018-03-20T03:46:29.376Z,10.35
2018-03-20T03:48:55.454Z,13.20
2018-03-20T03:51:21.520Z,10.23
2018-03-20T03:53:47.553Z,10.63
2018-03-20T03:56:13.603Z,11.15
2018-03-20T03:58:39.701Z,12.95
2018-03-20T04:01:05.778Z,11.73
2018-03-20T04:03:31.861Z,12.45
2018-03-20T04:05:57.961Z,12.95
2018-03-20T04:08:24.107Z,13.48
2018-03-20T04:10:50.905Z,16.95
2018-03-20T04:13:16.960Z,12.20
2018-03-20T04:15:43.009Z,16.95
2018-03-20T04:18:09.078Z,14.70
2018-03-20T04:20:35.100Z,13.00
2018-03-20T04:23:01.149Z,21.40
2018-03-20T04:25:27.177Z,18.42
2018-03-20T04:27:53.314Z,16.10
2018-03-20T04:30:19.350Z,16.33
2018-03-20T04:32:45.391Z,14.35
2018-03-20T04:35:11.419Z,17.10
2018-03-20T04:37:37.467Z,16.17
2018-03-20T04:40:04.229Z,14.93
2018-03-20T04:42:31.005Z,16.70
2018-03-20T04:44:57.077Z,12.52
2018-03-20T04:47:23.122Z,14.75
2018-03-20T04:49:49.285Z,16.10
2018-03-20T04:52:16.052Z,18.35
2018-03-20T04:54:42.818Z,18.35
2018-03-20T04:57:08.871Z,16.55
2018-03-20T04:59:34.963Z,15.55
2018-03-20T05:02:01.757Z,15.75
2018-03-20T05:04:27.838Z,15.55
2018-03-20T05:06:53.911Z,14.05
2018-03-20T05:09:20.007Z,19.17
2018-03-20T05:11:46.351Z,21.87
2018-03-20T05:14:13.432Z,17.17
2018-03-20T05:16:39.742Z,21.02
2018-03-20T05:19:07.920Z,18.65
2018-03-20T05:21:40.107Z,18.42
2018-03-20T05:24:06.416Z,25.58
2018-03-20T05:26:33.417Z,17.10
2018-03-20T05:28:59.702Z,23.52
2018-03-20T05:31:26.716Z,20.58
2018-03-20T05:33:53.081Z,21.85
2018-03-20T05:36:19.441Z,17.60
2018-03-20T05:38:45.725Z,24.92
2018-03-20T05:41:12.046Z,29.52
2018-03-20T05:43:39.126Z,27.05
2018-03-20T05:46:05.424Z,26.75
2018-03-20T05:48:31.665Z,24.58
2018-03-20T05:51:00.713Z,28.65
2018-03-20T05:53:26.993Z,28.92
2018-03-20T05:55:53.269Z,33.03
2018-03-20T05:58:19.550Z,33.47
2018-03-20T06:00:45.749Z,35.78
2018-03-20T06:03:12.031Z,33.95
2018-03-20T06:05:38.319Z,29.12
2018-03-20T06:08:04.558Z,30.30
2018-03-20T06:10:31.573Z,32.35
2018-03-20T06:12:57.932Z,37.25
2018-03-20T06:15:24.423Z,35.25
2018-03-20T06:17:50.629Z,35.92
2018-03-20T06:20:16.874Z,34.22
2018-03-20T06:22:43.129Z,43.30
2018-03-20T06:25:09.396Z,41.67
2018-03-20T06:27:35.671Z,35.50
2018-03-20T06:30:01.740Z,38.35
2018-03-20T06:32:27.778Z,37.25
2018-03-20T06:34:53.827Z,43.53
2018-03-20T06:37:20.653Z,31.87
2018-03-20T06:39:47.463Z,40.80
2018-03-20T06:42:13.509Z,37.50
2018-03-20T06:44:39.542Z,35.70
2018-03-20T06:47:05.601Z,37.17
2018-03-20T06:49:31.637Z,40.30
2018-03-20T06:51:58.445Z,43.83
2018-03-20T06:54:24.561Z,38.10
2018-03-20T06:56:51.358Z,44.33
2018-03-20T06:59:17.426Z,41.58
2018-03-20T07:01:44.239Z,42.62
2018-03-20T07:04:10.293Z,44.15
2018-03-20T07:06:36.359Z,38.97
2018-03-20T07:09:02.403Z,49.72
2018-03-20T07:11:28.445Z,43.50
2018-03-20T07:13:54.482Z,51.33
2018-03-20T07:16:21.306Z,41.90
2018-03-20T07:18:47.387Z,50.97
2018-03-20T07:21:13.418Z,48.63
2018-03-20T07:23:40.205Z,44.17
2018-03-20T07:26:06.382Z,42.95
2018-03-20T07:28:32.553Z,45.63
2018-03-20T07:30:59.333Z,37.97
2018-03-20T07:33:25.385Z,38.55
2018-03-20T07:35:51.464Z,33.65
2018-03-20T07:38:17.517Z,33.25
2018-03-20T07:40:44.310Z,34.33
2018-03-20T07:43:10.353Z,34.47
2018-03-20T07:45:36.437Z,31.45
2018-03-20T07:48:02.525Z,32.08
2018-03-20T07:50:28.584Z,25.62
2018-03-20T07:52:54.620Z,29.65
2018-03-20T07:55:20.886Z,33.00
2018-03-20T07:57:47.909Z,25.95
2018-03-20T08:00:14.169Z,21.45
2018-03-20T08:02:40.429Z,24.65
2018-03-20T08:05:07.453Z,26.05
2018-03-20T08:07:33.685Z,21.45
2018-03-20T08:09:59.731Z,22.60
2018-03-20T08:12:25.781Z,16.00
2018-03-20T08:14:51.842Z,23.48
2018-03-20T08:17:18.630Z,18.23
2018-03-20T08:19:44.939Z,20.95
2018-03-20T08:22:11.167Z,19.58
2018-03-20T08:24:37.552Z,20.75
2018-03-20T08:27:03.866Z,14.25
2018-03-20T08:29:30.230Z,17.45
2018-03-20T08:31:56.502Z,16.62
2018-03-20T08:34:22.790Z,17.65
2018-03-20T08:36:49.385Z,16.65
2018-03-20T08:39:15.713Z,18.40
2018-03-20T08:41:42.034Z,15.60
2018-03-20T08:44:08.326Z,12.77
2018-03-20T08:46:34.613Z,13.82
2018-03-20T08:49:01.707Z,12.02
2018-03-20T08:51:28.007Z,14.73
2018-03-20T08:53:54.849Z,12.05
2018-03-20T08:56:21.101Z,10.52
2018-03-20T08:58:47.351Z,10.38
2018-03-20T09:01:14.363Z,9.50
2018-03-20T09:03:40.694Z,9.20
2018-03-20T09:06:06.987Z,10.35
2018-03-20T09:08:33.803Z,7.25
2018-03-20T09:11:00.092Z,11.60
2018-03-20T09:13:28.121Z,8.88
2018-03-20T09:15:54.386Z,9.25
2018-03-20T09:18:20.650Z,6.62
2018-03-20T09:20:47.670Z,14.60
2018-03-20T09:23:13.948Z,9.68
2018-03-20T09:25:40.224Z,10.45
2018-03-20T09:28:07.218Z,7.53
2018-03-20T09:30:34.273Z,11.98
2018-03-20T09:33:00.550Z,8.35
2018-03-20T09:35:26.829Z,7.20
2018-03-20T09:37:53.097Z,6.30
2018-03-20T09:40:19.409Z,7.45
2018-03-20T09:42:45.686Z,8.27
2018-03-20T09:45:11.980Z,5.60
2018-03-20T09:47:38.295Z,6.15
2018-03-20T09:50:04.345Z,9.30
2018-03-20T09:52:30.421Z,8.23
2018-03-20T09:54:56.499Z,5.60
2018-03-20T09:57:22.568Z,4.80
2018-03-20T09:59:48.834Z,4.20
2018-03-20T10:02:15.703Z,6.00
2018-03-20T10:04:41.789Z,6.30
2018-03-20T10:07:08.651Z,5.40
2018-03-20T10:09:34.718Z,5.07
2018-03-20T10:12:00.807Z,7.82
2018-03-20T10:14:27.681Z,4.80
2018-03-20T10:16:53.763Z,6.10
2018-03-20T10:19:19.829Z,3.45
2018-03-20T10:21:45.976Z,4.45
2018-03-20T10:24:12.021Z,3.35
2018-03-20T10:26:38.838Z,3.85
2018-03-20T10:29:05.168Z,3.23
2018-03-20T10:31:31.466Z,2.72
2018-03-20T10:33:57.751Z,3.53
2018-03-20T10:36:24.033Z,2.97
2018-03-20T10:38:51.057Z,3.30
2018-03-20T10:41:17.358Z,4.78
2018-03-20T10:43:43.427Z,3.08
2018-03-20T10:46:09.545Z,6.32
2018-03-20T10:48:35.651Z,2.10
2018-03-20T10:51:02.470Z,2.55
2018-03-20T10:53:28.596Z,3.58
2018-03-20T10:55:54.755Z,2.92
2018-03-20T10:58:20.823Z,6.20
2018-03-20T11:00:47.661Z,4.18
2018-03-20T11:03:14.835Z,2.37
2018-03-20T11:05:41.122Z,6.65
2018-03-20T11:08:07.442Z,3.25
2018-03-20T11:10:34.598Z,1.83
2018-03-20T11:13:00.902Z,5.47
2018-03-20T11:15:27.213Z,2.12
2018-03-20T11:17:53.293Z,1.57
2018-03-20T11:20:19.369Z,2.00
2018-03-20T11:22:45.455Z,6.70
2018-03-20T11:25:11.534Z,3.30
2018-03-20T11:27:37.589Z,4.80
2018-03-20T11:30:03.664Z,3.10
2018-03-20T11:32:29.740Z,1.80
2018-03-20T11:34:55.790Z,2.50
2018-03-20T11:37:21.857Z,1.60
2018-03-20T11:39:49.353Z,2.07
2018-03-20T11:42:15.620Z,1.67
2018-03-20T11:44:41.931Z,2.20
2018-03-20T11:47:08.203Z,3.33
2018-03-20T11:49:35.286Z,2.93
2018-03-20T11:52:01.526Z,3.67
2018-03-20T11:54:27.781Z,1.90
2018-03-20T11:56:54.049Z,4.67
2018-03-20T11:59:20.289Z,1.50
2018-03-20T12:01:46.566Z,5.70
2018-03-20T12:04:13.569Z,1.60
2018-03-20T12:06:39.808Z,2.60
2018-03-20T12:09:18.554Z,2.53
2018-03-20T12:11:44.862Z,1.20
2018-03-20T12:14:11.204Z,2.90
2018-03-20T12:16:37.570Z,1.17
2018-03-20T12:19:03.934Z,4.20
2018-03-20T12:21:30.287Z,4.93
2018-03-20T12:23:59.584Z,1.23
2018-03-20T12:26:25.874Z,1.80
2018-03-20T12:28:52.097Z,4.50
2018-03-20T12:31:18.351Z,3.10
2018-03-20T12:33:44.595Z,2.73
2018-03-20T12:36:10.905Z,3.00
2018-03-20T12:38:37.173Z,2.30
2018-03-20T12:41:07.750Z,1.80
2018-03-20T12:43:34.751Z,0.70
2018-03-20T12:46:01.186Z,2.93
2018-03-20T12:48:27.233Z,1.30
2018-03-20T12:50:53.480Z,1.23
2018-03-20T12:53:19.854Z,4.67
2018-03-20T12:55:46.143Z,2.47
2018-03-20T12:58:16.059Z,1.80
2018-03-20T13:00:42.469Z,0.70
2018-03-20T13:03:08.721Z,3.60
2018-03-20T13:05:34.999Z,1.17
2018-03-20T13:08:01.290Z,0.87
2018-03-20T13:10:27.523Z,4.50
2018-03-20T13:12:53.749Z,1.10
2018-03-20T13:15:23.297Z,1.73
2018-03-20T13:17:49.604Z,1.00
2018-03-20T13:20:15.656Z,2.00
2018-03-20T13:22:41.723Z,1.43
2018-03-20T13:25:07.769Z,0.83
2018-03-20T13:27:34.822Z,2.30
2018-03-20T13:30:01.082Z,2.40
2018-03-20T13:32:27.368Z,2.97
2018-03-20T13:34:55.497Z,2.20
2018-03-20T13:37:21.567Z,3.70
2018-03-20T13:39:48.371Z,0.70
2018-03-20T13:42:14.525Z,1.20
2018-03-20T13:44:40.636Z,7.80
2018-03-20T13:47:06.725Z,1.60
2018-03-20T13:49:33.103Z,1.10
2018-03-20T13:51:59.394Z,4.77
2018-03-20T13:54:29.837Z,2.40
2018-03-20T13:56:56.257Z,3.30
2018-03-20T13:59:22.529Z,0.90
2018-03-20T14:01:48.629Z,2.03
2018-03-20T14:04:14.706Z,2.47
2018-03-20T14:06:40.799Z,2.37
2018-03-20T14:09:06.926Z,3.83
2018-03-20T14:11:33.036Z,2.83
2018-03-20T14:14:04.030Z,1.30
2018-03-20T14:16:30.181Z,1.37
2018-03-20T14:18:56.469Z,1.27
2018-03-20T14:21:22.759Z,1.23
2018-03-20T14:23:49.154Z,0.80
2018-03-20T14:26:15.486Z,3.13
2018-03-20T14:28:42.065Z,2.50
2018-03-20T14:31:08.335Z,0.80
2018-03-20T14:33:39.854Z,4.20
2018-03-20T14:36:06.877Z,0.90
2018-03-20T14:38:33.178Z,5.13
2018-03-20T14:40:59.434Z,4.23
2018-03-20T14:43:26.469Z,3.70
2018-03-20T14:45:52.913Z,1.10
2018-03-20T14:48:19.173Z,2.30
2018-03-20T14:50:46.251Z,1.07
2018-03-20T14:53:14.149Z,6.10
2018-03-20T14:55:40.417Z,1.70
2018-03-20T14:58:06.701Z,3.50
2018-03-20T15:00:33.080Z,7.83
2018-03-20T15:03:00.092Z,5.67
2018-03-20T15:05:27.117Z,2.73
2018-03-20T15:07:57.414Z,2.83
2018-03-20T15:10:23.769Z,1.55
2018-03-20T15:12:50.161Z,4.60
2018-03-20T15:15:16.408Z,2.00
2018-03-20T15:17:42.709Z,1.35
2018-03-20T15:20:09.843Z,0.80
2018-03-20T15:22:36.169Z,2.42
2018-03-20T15:25:02.450Z,3.62
2018-03-20T15:27:29.661Z,1.45
2018-03-20T15:29:55.941Z,0.80
2018-03-20T15:32:22.216Z,2.77
2018-03-20T15:34:48.298Z,6.50
2018-03-20T15:37:15.169Z,3.15
2018-03-20T15:39:41.254Z,4.90
2018-03-20T15:42:08.069Z,1.23
2018-03-20T15:44:37.890Z,3.22
2018-03-20T15:47:03.973Z,1.35
2018-03-20T15:49:30.085Z,1.00
2018-03-20T15:51:57.135Z,1.15
2018-03-20T15:54:23.443Z,0.93
2018-03-20T15:56:50.485Z,1.67
2018-03-20T15:59:16.772Z,1.45
2018-03-20T16:01:44.522Z,2.65
2018-03-20T16:04:10.813Z,4.57
2018-03-20T16:06:37.090Z,4.53
2018-03-20T16:09:04.154Z,1.58
2018-03-20T16:11:30.516Z,1.50
2018-03-20T16:13:57.544Z,0.90
2018-03-20T16:16:26.010Z,2.35
2018-03-20T16:18:52.447Z,1.25
2018-03-20T16:21:18.757Z,3.30
2018-03-20T16:23:45.146Z,2.65
2018-03-20T16:26:11.486Z,1.55
2018-03-20T16:28:37.847Z,1.90
2018-03-20T16:31:04.165Z,2.97
2018-03-20T16:33:30.502Z,1.48
2018-03-20T16:35:56.849Z,2.58
2018-03-20T16:38:23.852Z,1.55
2018-03-20T16:40:51.766Z,1.85
2018-03-20T16:43:18.798Z,2.40
2018-03-20T16:45:45.085Z,2.25
2018-03-20T16:48:12.109Z,4.40
2018-03-20T16:50:38.369Z,1.55
2018-03-20T16:53:04.740Z,3.10
2018-03-20T16:55:31.100Z,1.35
2018-03-20T16:57:57.173Z,2.50
2018-03-20T17:00:23.261Z,2.45
2018-03-20T17:02:49.337Z,2.15
2018-03-20T17:05:15.406Z,1.75
2018-03-20T17:07:42.270Z,2.17
2018-03-20T17:10:09.157Z,2.55
2018-03-20T17:12:35.578Z,2.25
2018-03-20T17:15:01.665Z,0.82
2018-03-20T17:17:28.076Z,1.98
2018-03-20T17:19:54.197Z,1.60
2018-03-20T17:22:20.409Z,1.83
2018-03-20T17:24:47.289Z,0.70
2018-03-20T17:27:14.135Z,2.03
2018-03-20T17:29:40.998Z,3.15
2018-03-20T17:32:07.977Z,0.90
2018-03-20T17:34:34.165Z,1.10
2018-03-20T17:37:00.237Z,2.47
2018-03-20T17:39:27.334Z,1.33
2018-03-20T17:41:53.812Z,1.10
2018-03-20T17:44:23.659Z,9.93
2018-03-20T17:46:49.981Z,1.40
2018-03-20T17:49:16.037Z,1.75
2018-03-20T17:51:42.118Z,1.75
2018-03-20T17:54:08.202Z,1.65
2018-03-20T17:56:34.383Z,1.80
2018-03-20T17:59:00.489Z,1.20
2018-03-20T18:01:27.309Z,3.60
2018-03-20T18:03:53.377Z,1.95
2018-03-20T18:06:20.325Z,1.65
2018-03-20T18:08:46.389Z,3.40
2018-03-20T18:11:13.187Z,2.10
2018-03-20T18:13:39.265Z,2.97
2018-03-20T18:16:06.102Z,1.42
2018-03-20T18:18:32.165Z,3.42
2018-03-20T18:20:58.266Z,3.10
2018-03-20T18:23:24.321Z,3.80
2018-03-20T18:25:50.600Z,2.10
2018-03-20T18:28:16.658Z,1.45
2018-03-20T18:30:42.789Z,2.37
2018-03-20T18:33:08.853Z,2.78
2018-03-20T18:35:34.907Z,2.70
2018-03-20T18:38:01.007Z,2.00
2018-03-20T18:40:27.058Z,1.60
2018-03-20T18:42:53.961Z,2.45
2018-03-20T18:45:20.212Z,2.25
2018-03-20T18:47:48.765Z,2.08
2018-03-20T18:50:16.187Z,2.62
2018-03-20T18:52:42.512Z,2.55
2018-03-20T18:55:08.824Z,2.55
2018-03-20T18:57:35.218Z,1.50
2018-03-20T19:00:02.329Z,2.05
2018-03-20T19:02:29.475Z,1.83
2018-03-20T19:04:55.780Z,2.30
2018-03-20T19:07:23.118Z,3.35
2018-03-20T19:09:50.156Z,3.03
2018-03-20T19:12:16.399Z,2.37
2018-03-20T19:14:42.798Z,4.43
2018-03-20T19:17:09.088Z,5.47
2018-03-20T19:19:35.379Z,3.62
2018-03-20T19:22:01.711Z,2.90
2018-03-20T19:24:28.736Z,6.85
2018-03-20T19:26:55.031Z,3.78
2018-03-20T19:29:21.334Z,5.25
2018-03-20T19:31:48.393Z,6.80
2018-03-20T19:34:15.469Z,3.15
2018-03-20T19:36:41.729Z,3.90
2018-03-20T19:39:08.766Z,2.85
2018-03-20T19:41:35.065Z,2.85
2018-03-20T19:44:01.592Z,2.40
2018-03-20T19:46:27.654Z,2.10
2018-03-20T19:48:53.765Z,5.68
2018-03-20T19:51:19.841Z,14.15
2018-03-20T19:53:45.917Z,4.10
2018-03-20T19:56:11.994Z,3.80
2018-03-20T19:58:38.087Z,5.10
2018-03-20T20:01:04.181Z,2.62
2018-03-20T20:03:30.462Z,4.93
2018-03-20T20:05:57.763Z,4.10
2018-03-20T20:08:24.057Z,2.53
2018-03-20T20:10:51.069Z,3.35
2018-03-20T20:13:17.370Z,4.03
2018-03-20T20:15:45.305Z,4.05
2018-03-20T20:18:11.616Z,5.37
2018-03-20T20:20:37.800Z,2.17
2018-03-20T20:23:03.925Z,3.85
2018-03-20T20:25:29.981Z,5.00
2018-03-20T20:27:56.152Z,3.15
2018-03-20T20:30:22.277Z,4.72
2018-03-20T20:32:49.163Z,5.75
2018-03-20T20:35:15.297Z,3.12
2018-03-20T20:37:41.399Z,3.97
2018-03-20T20:40:08.261Z,2.58
2018-03-20T20:42:35.305Z,4.65
2018-03-20T20:45:01.553Z,3.60
2018-03-20T20:47:27.992Z,2.72
2018-03-20T20:49:54.237Z,3.75
2018-03-20T20:52:20.503Z,4.25
2018-03-20T20:54:46.738Z,4.00
2018-03-20T20:57:12.982Z,3.15
2018-03-20T20:59:40.041Z,4.28
2018-03-20T21:02:07.068Z,5.37
2018-03-20T21:04:33.109Z,5.35
2018-03-20T21:06:59.169Z,4.50
2018-03-20T21:09:25.959Z,5.20
2018-03-20T21:11:52.037Z,5.72
2018-03-20T21:14:18.165Z,5.50
2018-03-20T21:16:44.346Z,5.70
2018-03-20T21:19:10.428Z,5.55
2018-03-20T21:21:36.541Z,7.35
2018-03-20T21:24:02.633Z,3.72
2018-03-20T21:26:28.696Z,8.13
2018-03-20T21:28:54.822Z,3.65
2018-03-20T21:31:21.656Z,5.03
2018-03-20T21:33:47.875Z,3.70
2018-03-20T21:36:13.976Z,5.25
2018-03-20T21:38:40.054Z,6.20
2018-03-20T21:41:06.186Z,6.22
2018-03-20T21:43:32.245Z,6.35
2018-03-20T21:45:58.317Z,5.07
2018-03-20T21:48:24.389Z,7.82
2018-03-20T21:50:50.477Z,4.90
2018-03-20T21:53:17.289Z,5.05
2018-03-20T21:55:43.624Z,5.35
2018-03-20T21:58:09.717Z,5.90
2018-03-20T22:00:36.601Z,5.60
2018-03-20T22:03:02.904Z,5.93
2018-03-20T22:05:30.014Z,7.00
2018-03-20T22:07:56.346Z,6.12
2018-03-20T22:10:22.777Z,5.20
2018-03-20T22:12:49.965Z,7.72
2018-03-20T22:15:17.005Z,5.90
2018-03-20T22:17:43.277Z,5.30
2018-03-20T22:20:09.553Z,4.80
2018-03-20T22:22:35.864Z,4.47
2018-03-20T22:25:02.118Z,5.22
2018-03-20T22:27:28.432Z,4.85
2018-03-20T22:29:54.712Z,4.62
2018-03-20T22:32:21.003Z,4.80
2018-03-20T22:34:48.009Z,5.15
2018-03-20T22:37:14.283Z,6.03
2018-03-20T22:39:41.305Z,6.18
2018-03-20T22:42:07.606Z,4.78
2018-03-20T22:44:33.887Z,4.30
2018-03-20T22:47:00.189Z,6.00
2018-03-20T22:49:27.173Z,6.28
2018-03-20T22:51:53.441Z,7.28
2018-03-20T22:54:19.689Z,8.30
2018-03-20T22:56:45.943Z,6.43
2018-03-20T22:59:12.290Z,7.15
2018-03-20T23:01:38.608Z,4.93
2018-03-20T23:04:04.986Z,7.45
2018-03-20T23:06:31.294Z,4.87
2018-03-20T23:08:58.309Z,6.60
2018-03-20T23:11:24.593Z,4.90
2018-03-20T23:13:50.841Z,13.18
2018-03-20T23:16:17.118Z,4.22
2018-03-20T23:18:44.345Z,5.55
2018-03-20T23:21:11.545Z,5.75
2018-03-20T23:23:37.841Z,5.80
2018-03-20T23:26:04.148Z,8.70
2018-03-20T23:28:30.573Z,7.65
2018-03-20T23:30:57.568Z,4.82
2018-03-20T23:33:23.609Z,5.25
2018-03-20T23:35:49.766Z,6.55
2018-03-20T23:38:15.822Z,3.40
2018-03-20T23:40:42.693Z,4.70
2018-03-20T23:43:08.812Z,4.05
2018-03-20T23:45:35.671Z,3.33
2018-03-20T23:48:01.777Z,5.90
2018-03-20T23:50:27.825Z,5.80
2018-03-20T23:52:53.894Z,7.07
2018-03-20T23:55:19.948Z,5.70
2018-03-20T23:57:46.036Z,4.45
